createdAt,value
2022-08-26T00:00:37.221Z,67.28
2022-08-26T00:03:41.429Z,68.97
2022-08-26T00:06:46.291Z,66.85
2022-08-26T00:09:50.124Z,67.16
2022-08-26T00:12:57.080Z,68.91
2022-08-26T00:16:00.160Z,67.44
2022-08-26T00:19:02.798Z,66.45
2022-08-26T00:22:05.718Z,64.75
2022-08-26T00:25:09.800Z,65.61
2022-08-26T00:28:12.965Z,67.53
2022-08-26T00:31:16.605Z,65.81
2022-08-26T00:34:19.689Z,68.65
2022-08-26T00:37:22.551Z,69.25
2022-08-26T00:40:32.634Z,66.03
2022-08-26T00:43:47.279Z,68.37
2022-08-26T00:46:52.770Z,69.86
2022-08-26T00:49:56.862Z,69.50
2022-08-26T00:53:01.275Z,67.24
2022-08-26T00:56:07.587Z,68.05
2022-08-26T00:59:12.331Z,66.27
2022-08-26T01:02:21.129Z,70.08
2022-08-26T01:05:24.840Z,70.14
2022-08-26T01:08:27.705Z,67.78
2022-08-26T01:11:30.736Z,66.24
2022-08-26T01:14:34.847Z,70.44
2022-08-26T01:17:40.079Z,70.58
2022-08-26T01:20:47.739Z,68.54
2022-08-26T01:23:57.717Z,68.30
2022-08-26T01:27:02.812Z,66.65
2022-08-26T01:30:11.059Z,70.55
2022-08-26T01:33:17.640Z,71.04
2022-08-26T01:36:20.438Z,71.18
2022-08-26T01:39:23.440Z,70.91
2022-08-26T01:42:29.674Z,70.79
2022-08-26T01:45:33.303Z,69.98
2022-08-26T01:48:38.372Z,69.02
2022-08-26T01:51:41.338Z,70.20
2022-08-26T01:54:46.379Z,69.99
2022-08-26T01:57:56.332Z,68.61
2022-08-26T02:00:59.668Z,69.08
2022-08-26T02:04:06.288Z,69.40
2022-08-26T02:07:09.560Z,67.89
2022-08-26T02:10:12.323Z,70.80
2022-08-26T02:13:18.027Z,71.67
2022-08-26T02:16:22.357Z,72.40
2022-08-26T02:19:29.072Z,71.72
2022-08-26T02:22:32.619Z,70.50
2022-08-26T02:25:48.507Z,71.33
2022-08-26T02:28:53.479Z,72.10
2022-08-26T02:31:56.162Z,71.67
2022-08-26T02:34:58.891Z,72.46
2022-08-26T02:38:02.715Z,72.78
2022-08-26T02:41:13.177Z,72.74
2022-08-26T02:44:17.037Z,72.32
2022-08-26T02:47:19.710Z,72.24
2022-08-26T02:50:28.217Z,71.89
2022-08-26T02:53:31.874Z,72.06
2022-08-26T02:56:38.061Z,71.86
2022-08-26T02:59:40.707Z,72.03
2022-08-26T03:02:43.517Z,72.26
2022-08-26T03:05:47.040Z,72.04
2022-08-26T03:08:50.279Z,71.39
2022-08-26T03:11:54.708Z,71.78
2022-08-26T03:14:57.357Z,70.11
2022-08-26T03:18:01.905Z,72.50
2022-08-26T03:21:08.752Z,71.02
2022-08-26T03:24:12.148Z,70.43
2022-08-26T03:27:14.860Z,69.62
2022-08-26T03:30:36.920Z,71.27
2022-08-26T03:33:40.213Z,70.32
2022-08-26T03:36:43.069Z,72.36
2022-08-26T03:39:45.733Z,70.61
2022-08-26T03:42:48.521Z,71.11
2022-08-26T03:45:51.326Z,70.86
2022-08-26T03:48:55.195Z,70.87
2022-08-26T03:51:57.796Z,72.18
2022-08-26T03:55:00.729Z,71.68
2022-08-26T03:58:03.429Z,70.75
2022-08-26T04:01:06.251Z,70.74
2022-08-26T04:04:15.417Z,71.90
2022-08-26T04:07:18.759Z,70.08
2022-08-26T04:10:28.769Z,72.08
2022-08-26T04:13:32.420Z,70.21
2022-08-26T04:16:35.260Z,69.90
2022-08-26T04:19:38.062Z,69.81
2022-08-26T04:22:41.461Z,70.93
2022-08-26T04:25:44.085Z,71.50
2022-08-26T04:28:47.090Z,70.61
2022-08-26T04:31:50.351Z,70.74
2022-08-26T04:34:58.024Z,69.99
2022-08-26T04:38:04.044Z,68.64
2022-08-26T04:41:14.913Z,68.91
2022-08-26T04:44:18.318Z,70.23
2022-08-26T04:47:20.941Z,69.28
2022-08-26T04:50:25.190Z,70.46
2022-08-26T04:53:28.112Z,70.07
2022-08-26T04:56:32.218Z,68.97
2022-08-26T04:59:38.978Z,70.05
2022-08-26T05:02:42.038Z,69.31
2022-08-26T05:05:46.705Z,69.30
2022-08-26T05:08:49.713Z,69.07
2022-08-26T05:11:52.521Z,68.67
2022-08-26T05:14:55.481Z,68.57
2022-08-26T05:17:58.903Z,68.28
2022-08-26T05:21:03.575Z,67.86
2022-08-26T05:24:07.421Z,67.78
2022-08-26T05:27:11.777Z,68.02
2022-08-26T05:30:14.945Z,68.07
2022-08-26T05:33:18.232Z,67.34
2022-08-26T05:36:22.496Z,66.93
2022-08-26T05:39:25.078Z,66.68
2022-08-26T05:42:28.422Z,66.11
2022-08-26T05:45:33.050Z,66.16
2022-08-26T05:48:35.959Z,66.19
2022-08-26T05:51:39.007Z,65.84
2022-08-26T05:54:42.069Z,65.56
2022-08-26T05:57:45.253Z,65.14
2022-08-26T06:00:55.782Z,64.66
2022-08-26T06:04:01.470Z,65.53
2022-08-26T06:07:05.489Z,63.84
2022-08-26T06:10:31.702Z,64.08
2022-08-26T06:13:35.458Z,65.65
2022-08-26T06:16:40.992Z,65.25
2022-08-26T06:19:43.859Z,65.37
2022-08-26T06:23:05.596Z,64.69
2022-08-26T06:26:10.887Z,65.13
2022-08-26T06:29:14.021Z,63.90
2022-08-26T06:32:27.269Z,64.06
2022-08-26T06:35:29.920Z,63.57
2022-08-26T06:38:33.846Z,63.00
2022-08-26T06:41:43.287Z,61.51
2022-08-26T06:44:47.047Z,61.17
2022-08-26T06:47:49.687Z,63.50
2022-08-26T06:51:02.590Z,62.36
2022-08-26T06:54:05.754Z,62.21
2022-08-26T06:57:09.221Z,62.47
2022-08-26T07:00:13.854Z,62.82
2022-08-26T07:03:16.747Z,63.03
2022-08-26T07:06:21.406Z,61.93
2022-08-26T07:09:27.011Z,62.54
2022-08-26T07:12:30.251Z,62.52
2022-08-26T07:15:36.350Z,59.95
2022-08-26T07:18:39.991Z,60.31
2022-08-26T07:21:44.109Z,61.25
2022-08-26T07:24:46.822Z,63.51
2022-08-26T07:27:54.468Z,62.79
2022-08-26T07:30:57.426Z,61.55
2022-08-26T07:34:00.909Z,61.07
2022-08-26T07:37:08.784Z,60.15
2022-08-26T07:40:13.894Z,60.31
2022-08-26T07:43:19.046Z,59.59
2022-08-26T07:46:27.068Z,59.08
2022-08-26T07:49:32.850Z,62.26
2022-08-26T07:52:37.661Z,63.14
2022-08-26T07:55:40.898Z,61.92
2022-08-26T07:58:45.726Z,60.12
2022-08-26T08:01:50.746Z,58.42
2022-08-26T08:04:54.327Z,62.40
2022-08-26T08:08:00.850Z,62.28
2022-08-26T08:11:20.620Z,58.84
2022-08-26T08:14:23.254Z,61.07
2022-08-26T08:17:25.816Z,62.58
2022-08-26T08:20:29.155Z,61.00
2022-08-26T08:23:32.410Z,60.10
2022-08-26T08:26:35.155Z,54.46
2022-08-26T08:29:37.765Z,57.22
2022-08-26T08:32:43.178Z,56.15
2022-08-26T08:35:45.870Z,60.38
2022-08-26T08:38:48.527Z,57.90
2022-08-26T08:41:58.942Z,60.83
2022-08-26T08:45:05.075Z,60.93
2022-08-26T08:48:13.566Z,60.67
2022-08-26T08:51:20.122Z,60.53
2022-08-26T08:54:25.747Z,59.67
2022-08-26T08:57:33.550Z,60.32
2022-08-26T09:00:41.791Z,59.92
2022-08-26T09:03:50.710Z,59.09
2022-08-26T09:06:55.551Z,56.17
2022-08-26T09:10:01.015Z,58.39
2022-08-26T09:13:05.651Z,58.94
2022-08-26T09:16:10.327Z,57.22
2022-08-26T09:19:18.965Z,57.27
2022-08-26T09:22:29.728Z,55.03
2022-08-26T09:25:32.413Z,55.30
2022-08-26T09:28:40.217Z,55.09
2022-08-26T09:31:43.523Z,55.14
2022-08-26T09:34:53.409Z,54.20
2022-08-26T09:37:56.000Z,54.83
2022-08-26T09:40:59.784Z,53.68
2022-08-26T09:44:14.697Z,53.09
2022-08-26T09:47:21.742Z,52.46
2022-08-26T09:50:28.786Z,51.94
2022-08-26T09:53:33.738Z,48.83
2022-08-26T09:56:38.123Z,47.99
2022-08-26T09:59:42.301Z,48.51
2022-08-26T10:02:47.758Z,47.27
2022-08-26T10:05:57.786Z,47.08
2022-08-26T10:09:08.868Z,45.83
2022-08-26T10:12:16.358Z,46.30
2022-08-26T10:15:20.721Z,46.92
2022-08-26T10:18:28.786Z,46.41
2022-08-26T10:21:36.729Z,46.63
2022-08-26T10:24:45.022Z,46.74
2022-08-26T10:27:54.401Z,44.78
2022-08-26T10:31:00.486Z,43.23
2022-08-26T10:34:03.299Z,43.49
2022-08-26T10:37:13.662Z,42.47
2022-08-26T10:40:22.651Z,43.60
2022-08-26T10:43:26.883Z,44.04
2022-08-26T10:46:36.055Z,43.31
2022-08-26T10:49:40.592Z,42.80
2022-08-26T10:52:50.289Z,41.49
2022-08-26T10:55:58.064Z,41.31
2022-08-26T10:59:06.479Z,41.00
2022-08-26T11:02:22.819Z,40.24
2022-08-26T11:05:27.441Z,39.34
2022-08-26T11:08:30.312Z,39.07
2022-08-26T11:11:45.126Z,39.27
2022-08-26T11:14:56.168Z,40.20
2022-08-26T11:18:03.088Z,40.05
2022-08-26T11:21:36.442Z,39.34
2022-08-26T11:24:44.560Z,38.03
2022-08-26T11:27:55.606Z,37.47
2022-08-26T11:30:58.503Z,37.36
2022-08-26T11:34:02.832Z,37.20
2022-08-26T11:37:12.300Z,37.75
2022-08-26T11:40:17.308Z,37.28
2022-08-26T11:43:23.318Z,36.86
2022-08-26T11:46:27.142Z,35.82
2022-08-26T11:49:32.422Z,36.05
2022-08-26T11:52:36.434Z,35.54
2022-08-26T11:55:42.810Z,35.30
2022-08-26T11:58:47.123Z,35.88
2022-08-26T12:01:50.937Z,36.00
2022-08-26T12:04:54.336Z,35.70
2022-08-26T12:07:59.234Z,35.61
2022-08-26T12:11:03.091Z,35.34
2022-08-26T12:14:15.841Z,35.54
2022-08-26T12:17:19.499Z,35.21
2022-08-26T12:20:45.363Z,35.48
2022-08-26T12:23:50.142Z,35.64
2022-08-26T12:27:14.354Z,34.96
2022-08-26T12:30:19.424Z,34.45
2022-08-26T12:33:23.314Z,34.16
2022-08-26T12:36:28.708Z,34.00
2022-08-26T12:39:35.001Z,33.83
2022-08-26T12:42:41.491Z,33.73
2022-08-26T12:45:54.912Z,34.57
2022-08-26T12:49:00.762Z,34.11
2022-08-26T12:52:04.059Z,32.42
2022-08-26T12:55:17.673Z,32.98
2022-08-26T12:58:25.385Z,32.91
2022-08-26T13:01:35.968Z,32.18
2022-08-26T13:04:40.587Z,32.59
2022-08-26T13:07:43.289Z,32.42
2022-08-26T13:10:47.610Z,32.81
2022-08-26T13:13:56.152Z,32.43
2022-08-26T13:16:59.015Z,32.33
2022-08-26T13:20:04.201Z,32.10
2022-08-26T13:23:07.778Z,31.75
2022-08-26T13:26:10.583Z,31.72
2022-08-26T13:29:13.373Z,31.97
2022-08-26T13:32:17.454Z,32.52
2022-08-26T13:35:20.234Z,32.35
2022-08-26T13:38:33.632Z,32.34
2022-08-26T13:41:36.855Z,31.89
2022-08-26T13:44:40.134Z,32.36
2022-08-26T13:47:43.069Z,31.96
2022-08-26T13:50:46.104Z,31.94
2022-08-26T13:53:49.502Z,32.38
2022-08-26T13:56:52.271Z,32.47
2022-08-26T13:59:56.647Z,31.67
2022-08-26T14:03:00.395Z,31.65
2022-08-26T14:06:03.231Z,31.00
2022-08-26T14:09:06.029Z,31.14
2022-08-26T14:12:09.061Z,31.21
2022-08-26T14:15:12.532Z,30.97
2022-08-26T14:18:17.580Z,30.45
2022-08-26T14:21:21.196Z,29.93
2022-08-26T14:24:24.018Z,30.85
2022-08-26T14:27:27.845Z,30.43
2022-08-26T14:30:31.202Z,29.74
2022-08-26T14:33:34.633Z,29.92
2022-08-26T14:36:40.121Z,30.19
2022-08-26T14:39:42.963Z,30.83
2022-08-26T14:42:52.683Z,30.61
2022-08-26T14:45:58.556Z,30.07
2022-08-26T14:49:03.581Z,30.16
2022-08-26T14:52:10.354Z,29.32
2022-08-26T14:55:13.030Z,29.92
2022-08-26T14:58:16.022Z,29.28
2022-08-26T15:01:21.495Z,29.90
2022-08-26T15:04:24.639Z,29.96
2022-08-26T15:07:27.433Z,29.70
2022-08-26T15:10:36.024Z,29.34
2022-08-26T15:13:39.882Z,29.27
2022-08-26T15:16:42.854Z,29.07
2022-08-26T15:19:46.855Z,29.13
2022-08-26T15:22:49.543Z,28.75
2022-08-26T15:25:53.889Z,28.57
2022-08-26T15:28:56.763Z,27.49
2022-08-26T15:32:01.024Z,27.78
2022-08-26T15:35:08.716Z,27.46
2022-08-26T15:38:12.119Z,27.29
2022-08-26T15:41:14.833Z,27.35
2022-08-26T15:44:17.988Z,27.04
2022-08-26T15:47:21.675Z,27.17
2022-08-26T15:50:25.073Z,26.29
2022-08-26T15:53:29.945Z,25.93
2022-08-26T15:56:33.791Z,26.02
2022-08-26T15:59:37.382Z,25.02
2022-08-26T16:02:40.586Z,23.74
2022-08-26T16:05:43.428Z,25.02
2022-08-26T16:08:46.373Z,25.30
2022-08-26T16:11:49.295Z,25.47
2022-08-26T16:14:53.444Z,25.22
2022-08-26T16:17:58.277Z,25.28
2022-08-26T16:21:12.628Z,24.28
2022-08-26T16:24:17.406Z,25.37
2022-08-26T16:27:20.202Z,24.57
2022-08-26T16:30:26.121Z,23.70
2022-08-26T16:33:29.814Z,25.35
2022-08-26T16:36:33.505Z,25.64
2022-08-26T16:39:44.916Z,25.22
2022-08-26T16:42:48.128Z,25.86
2022-08-26T16:45:50.950Z,25.85
2022-08-26T16:48:53.861Z,26.12
2022-08-26T16:51:56.683Z,26.09
2022-08-26T16:54:59.521Z,25.74
2022-08-26T16:58:02.570Z,26.09
2022-08-26T17:01:05.516Z,26.37
2022-08-26T17:04:11.126Z,26.41
2022-08-26T17:07:13.988Z,27.06
2022-08-26T17:10:16.865Z,27.44
2022-08-26T17:13:28.933Z,27.07
2022-08-26T17:16:38.089Z,27.75
2022-08-26T17:19:46.941Z,28.01
2022-08-26T17:22:51.150Z,28.44
2022-08-26T17:25:54.124Z,28.82
2022-08-26T17:28:58.467Z,29.45
2022-08-26T17:32:01.801Z,29.66
2022-08-26T17:35:05.828Z,29.72
2022-08-26T17:38:11.509Z,30.19
2022-08-26T17:41:15.515Z,31.01
2022-08-26T17:44:18.339Z,31.62
2022-08-26T17:47:21.054Z,32.23
2022-08-26T17:50:23.758Z,33.43
2022-08-26T17:53:26.566Z,33.67
2022-08-26T17:56:29.638Z,34.28
2022-08-26T17:59:32.572Z,34.47
2022-08-26T18:02:37.442Z,34.85
2022-08-26T18:05:41.441Z,35.81
2022-08-26T18:08:44.379Z,36.59
2022-08-26T18:11:47.264Z,37.35
2022-08-26T18:14:50.149Z,38.05
2022-08-26T18:17:52.954Z,38.22
2022-08-26T18:21:01.417Z,38.59
2022-08-26T18:24:05.515Z,39.24
2022-08-26T18:27:08.167Z,40.28
2022-08-26T18:30:16.611Z,40.45
2022-08-26T18:33:20.856Z,40.86
2022-08-26T18:36:24.430Z,41.43
2022-08-26T18:39:27.112Z,41.09
2022-08-26T18:42:29.661Z,41.20
2022-08-26T18:45:32.785Z,40.96
2022-08-26T18:48:36.564Z,42.09
2022-08-26T18:51:39.398Z,41.70
2022-08-26T18:54:45.982Z,42.14
2022-08-26T18:57:48.815Z,42.98
2022-08-26T19:00:51.636Z,43.16
2022-08-26T19:03:54.655Z,43.38
2022-08-26T19:06:57.397Z,43.87
2022-08-26T19:10:00.143Z,43.66
2022-08-26T19:13:04.648Z,43.81
2022-08-26T19:16:14.942Z,44.28
2022-08-26T19:19:18.312Z,44.64
2022-08-26T19:22:22.318Z,45.24
2022-08-26T19:25:24.957Z,45.56
2022-08-26T19:28:27.421Z,45.44
2022-08-26T19:31:30.786Z,45.67
2022-08-26T19:34:33.549Z,46.21
2022-08-26T19:37:36.250Z,45.89
2022-08-26T19:40:39.479Z,46.37
2022-08-26T19:43:42.561Z,46.10
2022-08-26T19:46:45.375Z,46.32
2022-08-26T19:49:52.436Z,46.33
2022-08-26T19:52:55.143Z,46.81
2022-08-26T19:55:57.991Z,47.22
2022-08-26T19:59:01.165Z,47.54
2022-08-26T20:02:07.318Z,47.47
2022-08-26T20:05:14.169Z,47.42
2022-08-26T20:08:22.050Z,47.77
2022-08-26T20:11:25.328Z,48.38
2022-08-26T20:14:28.908Z,48.34
2022-08-26T20:17:31.682Z,48.91
2022-08-26T20:20:53.850Z,49.17
2022-08-26T20:23:58.605Z,49.58
2022-08-26T20:27:07.299Z,49.94
2022-08-26T20:30:11.733Z,49.55
2022-08-26T20:33:14.563Z,50.91
2022-08-26T20:36:17.396Z,50.64
2022-08-26T20:39:20.670Z,50.99
2022-08-26T20:42:23.431Z,51.16
2022-08-26T20:45:26.263Z,51.91
2022-08-26T20:48:29.774Z,51.80
2022-08-26T20:51:32.666Z,51.71
2022-08-26T20:54:35.343Z,52.14
2022-08-26T20:57:38.694Z,52.18
2022-08-26T21:00:41.570Z,52.26
2022-08-26T21:03:44.306Z,52.38
2022-08-26T21:06:52.160Z,52.56
2022-08-26T21:09:55.844Z,52.96
2022-08-26T21:12:58.588Z,53.27
2022-08-26T21:16:01.424Z,53.09
2022-08-26T21:19:04.676Z,53.69
2022-08-26T21:22:07.451Z,53.84
2022-08-26T21:25:10.344Z,53.64
2022-08-26T21:28:13.113Z,53.92
2022-08-26T21:31:17.133Z,54.13
2022-08-26T21:34:20.067Z,54.47
2022-08-26T21:37:23.072Z,54.05
2022-08-26T21:40:26.980Z,54.18
2022-08-26T21:43:35.194Z,54.22
2022-08-26T21:46:39.053Z,54.28
2022-08-26T21:49:43.596Z,54.25
2022-08-26T21:52:47.865Z,54.16
2022-08-26T21:55:50.674Z,54.30
2022-08-26T21:58:54.436Z,54.29
2022-08-26T22:01:57.637Z,54.27
2022-08-26T22:05:00.745Z,54.49
2022-08-26T22:08:04.180Z,54.77
2022-08-26T22:11:06.997Z,55.02
2022-08-26T22:14:09.773Z,55.05
2022-08-26T22:17:12.874Z,55.11
2022-08-26T22:20:16.334Z,55.94
2022-08-26T22:23:20.108Z,55.98
2022-08-26T22:26:25.759Z,55.86
2022-08-26T22:29:28.878Z,56.49
2022-08-26T22:32:31.971Z,56.56
2022-08-26T22:35:37.931Z,56.87
2022-08-26T22:38:40.632Z,56.71
2022-08-26T22:41:44.424Z,56.84
2022-08-26T22:44:47.166Z,57.48
2022-08-26T22:47:49.846Z,57.18
2022-08-26T22:50:57.112Z,57.14
2022-08-26T22:54:02.522Z,56.85
2022-08-26T22:57:05.368Z,57.10
2022-08-26T23:00:11.826Z,57.13
2022-08-26T23:03:15.978Z,57.59
2022-08-26T23:06:19.311Z,57.48
2022-08-26T23:09:22.136Z,57.91
2022-08-26T23:12:27.176Z,58.17
2022-08-26T23:15:30.367Z,58.31
2022-08-26T23:18:33.201Z,58.60
2022-08-26T23:21:36.079Z,58.41
2022-08-26T23:24:41.710Z,58.76
2022-08-26T23:27:44.981Z,58.81
2022-08-26T23:30:47.848Z,58.54
2022-08-26T23:34:09.375Z,58.93
2022-08-26T23:37:13.354Z,58.85
2022-08-26T23:40:18.091Z,58.83
2022-08-26T23:43:21.352Z,59.53
2022-08-26T23:46:24.323Z,59.48
2022-08-26T23:49:28.352Z,59.30
2022-08-26T23:52:51.018Z,59.46
2022-08-26T23:55:54.333Z,59.40
2022-08-26T23:58:57.248Z,59.63
